Time;durP1;ratioP1;P1;durP2;ratioP2;P2;SDS_P1;SDS_P2;PMS_P1;PMS_P2;Temp;Humidity;BMP_temperature;BMP_pressure;BME280_temperature;BME280_humidity;BME280_pressure;Samples;Min_cycle;Max_cycle;Signal;HPM_P1;HPM_P2
2023/01/30 00:00:54;;;;;;;25.40;15.25;;;2.60;99.90;;;;;;5011127;28;20472;-63
2023/01/30 00:03:21;;;;;;;27.90;14.77;;;2.70;99.70;;;;;;5010845;28;20112;-62
2023/01/30 00:05:47;;;;;;;30.45;15.27;;;2.60;99.90;;;;;;5014526;28;20017;-62
2023/01/30 00:08:13;;;;;;;30.00;14.68;;;2.60;99.90;;;;;;5030744;28;20069;-62
2023/01/30 00:10:39;;;;;;;29.90;15.77;;;2.60;99.90;;;;;;5027169;28;20100;-61
2023/01/30 00:13:04;;;;;;;29.08;15.30;;;2.60;99.90;;;;;;5028225;28;20045;-62
2023/01/30 00:15:30;;;;;;;29.67;15.90;;;2.60;99.90;;;;;;5030565;28;20037;-62
2023/01/30 00:17:55;;;;;;;28.92;16.98;;;2.60;99.90;;;;;;5021510;28;20045;-63
2023/01/30 00:20:21;;;;;;;29.83;14.73;;;2.70;99.90;;;;;;5014344;28;20030;-62
2023/01/30 00:22:46;;;;;;;27.30;15.63;;;2.60;99.90;;;;;;5010526;28;20068;-62
2023/01/30 00:25:12;;;;;;;25.33;14.80;;;2.60;99.90;;;;;;5010461;28;20061;-61
2023/01/30 00:27:38;;;;;;;27.63;15.53;;;2.60;99.90;;;;;;5010876;28;20413;-62
2023/01/30 00:30:06;;;;;;;28.37;14.80;;;2.50;99.90;;;;;;5010459;28;20041;-63
2023/01/30 00:32:32;;;;;;;29.95;15.55;;;2.50;99.90;;;;;;5026562;28;20041;-62
2023/01/30 00:34:58;;;;;;;28.58;15.02;;;2.50;99.90;;;;;;5030277;28;20033;-63
2023/01/30 00:37:24;;;;;;;29.30;15.77;;;2.50;99.90;;;;;;5029380;28;20041;-62
2023/01/30 00:39:49;;;;;;;27.50;14.85;;;2.60;99.90;;;;;;5029890;28;20026;-65
2023/01/30 00:47:43;;;;;;;27.13;15.13;;;2.50;99.90;;;;;;5028699;28;20032;-62
2023/01/30 00:50:09;;;;;;;29.00;15.32;;;2.50;99.90;;;;;;5029185;28;20041;-62
2023/01/30 00:52:35;;;;;;;27.23;14.82;;;2.60;99.90;;;;;;5010762;28;20053;-63
2023/01/30 00:55:00;;;;;;;29.97;15.90;;;2.60;99.90;;;;;;5026976;28;20029;-63
2023/01/30 00:57:26;;;;;;;29.70;15.97;;;2.60;99.90;;;;;;5029279;28;20065;-62
2023/01/30 00:59:51;;;;;;;29.57;16.63;;;2.60;99.90;;;;;;5029824;28;20030;-62
2023/01/30 01:02:17;;;;;;;31.70;16.17;;;2.50;99.90;;;;;;5029058;28;20449;-62
2023/01/30 01:04:43;;;;;;;31.45;15.57;;;2.50;99.90;;;;;;5029650;28;20036;-62
2023/01/30 01:07:13;;;;;;;30.80;16.63;;;2.50;99.90;;;;;;5015617;28;20034;-62
2023/01/30 01:09:39;;;;;;;32.42;16.42;;;2.50;99.90;;;;;;5009987;28;20304;-62
2023/01/30 01:12:05;;;;;;;29.75;16.27;;;2.50;99.90;;;;;;5009862;28;20785;-62
2023/01/30 01:14:31;;;;;;;28.60;16.10;;;2.50;99.90;;;;;;5009448;28;20489;-62
2023/01/30 01:16:57;;;;;;;28.35;16.05;;;2.50;99.90;;;;;;5011475;28;20041;-63
2023/01/30 01:19:22;;;;;;;29.17;16.73;;;2.50;99.90;;;;;;5029567;28;20037;-61
2023/01/30 01:21:48;;;;;;;30.77;16.80;;;2.50;99.90;;;;;;5027456;28;20306;-63
2023/01/30 01:24:14;;;;;;;33.70;16.87;;;2.60;99.90;;;;;;5029373;28;20355;-62
2023/01/30 01:26:40;;;;;;;29.77;15.30;;;2.50;99.90;;;;;;5018697;28;20053;-62
2023/01/30 01:29:10;;;;;;;28.42;16.13;;;2.50;99.90;;;;;;4975743;28;20041;-62
2023/01/30 01:31:36;;;;;;;31.55;16.13;;;2.50;99.90;;;;;;5017911;28;20036;-62
2023/01/30 01:34:02;;;;;;;29.47;16.00;;;2.50;99.90;;;;;;5028811;28;20030;-62
2023/01/30 01:36:27;;;;;;;32.50;14.63;;;2.50;99.90;;;;;;5028567;28;20378;-62
2023/01/30 01:38:53;;;;;;;30.50;15.93;;;2.50;99.90;;;;;;5029086;28;20556;-61
2023/01/30 01:41:18;;;;;;;27.67;15.27;;;2.50;99.90;;;;;;5028074;28;20037;-62
2023/01/30 01:44:04;;;;;;;28.47;15.10;;;2.50;99.90;;;;;;5028711;28;20108;-64
2023/01/30 01:46:53;;;;;;;32.78;16.55;;;2.50;99.90;;;;;;5018261;28;20072;-61
2023/01/30 01:49:26;;;;;;;31.02;15.73;;;2.50;99.90;;;;;;5007777;28;20123;-61
2023/01/30 01:52:06;;;;;;;35.17;16.60;;;2.50;99.90;;;;;;5009207;28;20038;-63
2023/01/30 01:54:36;;;;;;;28.75;15.55;;;2.50;99.90;;;;;;5008783;28;20068;-62
2023/01/30 01:57:07;;;;;;;29.05;14.57;;;2.50;99.90;;;;;;5008245;28;20034;-62
2023/01/30 01:59:38;;;;;;;25.83;14.68;;;2.50;99.90;;;;;;5008887;28;20038;-62
2023/01/30 02:02:09;;;;;;;30.45;16.13;;;2.50;99.90;;;;;;5009229;28;20040;-63
2023/01/30 02:08:02;;;;;;;31.83;15.07;;;2.50;99.90;;;;;;4988466;28;20498;-62
2023/01/30 02:10:52;;;;;;;31.00;15.35;;;2.50;99.90;;;;;;5008935;28;20066;-62
2023/01/30 02:13:18;;;;;;;27.33;14.18;;;2.50;99.90;;;;;;5008350;28;20065;-62
2023/01/30 02:15:44;;;;;;;29.08;15.75;;;2.50;99.90;;;;;;5015707;28;20037;-62
2023/01/30 02:18:12;;;;;;;26.77;14.85;;;2.50;99.90;;;;;;5028037;28;20033;-62
2023/01/30 02:20:49;;;;;;;28.20;15.25;;;2.40;99.90;;;;;;5018265;28;20472;-62
2023/01/30 02:23:42;;;;;;;27.42;14.30;;;2.50;99.90;;;;;;5027318;28;20057;-62
2023/01/30 02:26:35;;;;;;;28.67;14.57;;;2.50;99.90;;;;;;5018022;28;20116;-62
2023/01/30 02:29:25;;;;;;;27.90;15.45;;;2.50;99.90;;;;;;5008172;28;20033;-61
2023/01/30 02:31:53;;;;;;;25.65;14.93;;;2.40;99.90;;;;;;5008365;28;20113;-62
2023/01/30 02:34:42;;;;;;;29.25;14.73;;;2.50;99.90;;;;;;5008098;28;20113;-62
2023/01/30 02:37:16;;;;;;;28.80;14.88;;;2.60;99.90;;;;;;5020275;28;20052;-62
2023/01/30 02:39:54;;;;;;;34.03;15.90;;;2.50;99.90;;;;;;5027938;28;20036;-62
2023/01/30 02:42:27;;;;;;;30.65;16.00;;;2.50;99.90;;;;;;5010532;28;20112;-63
2023/01/30 02:45:25;;;;;;;30.30;15.82;;;2.50;99.90;;;;;;5008002;28;20124;-63
2023/01/30 02:47:53;;;;;;;;;;;2.60;99.90;;;;;;4991294;28;20125;-62
2023/01/30 02:50:28;;;;;;;26.45;13.98;;;2.50;99.90;;;;;;5010217;28;19924;-62
2023/01/30 02:52:54;;;;;;;30.90;17.10;;;2.50;99.90;;;;;;5027644;28;20029;-62
2023/01/30 02:55:25;;;;;;;29.38;15.82;;;2.50;99.90;;;;;;5027121;28;20022;-62
2023/01/30 02:57:51;;;;;;;30.30;16.48;;;2.50;99.90;;;;;;5027608;28;20459;-62
2023/01/30 03:00:38;;;;;;;30.90;16.30;;;2.50;99.90;;;;;;5017619;28;20029;-63
2023/01/30 03:03:25;;;;;;;27.20;15.30;;;2.50;99.90;;;;;;5007540;28;20033;-62
2023/01/30 03:06:22;;;;;;;25.92;14.35;;;2.50;99.90;;;;;;5008017;28;20529;-62
2023/01/30 03:09:06;;;;;;;28.38;14.82;;;2.40;99.90;;;;;;5007244;28;20022;-62
2023/01/30 03:11:48;;;;;;;29.48;15.35;;;2.50;99.90;;;;;;4991013;28;20034;-64
2023/01/30 03:14:19;;;;;;;28.58;15.50;;;2.40;99.90;;;;;;5007604;28;20034;-62
2023/01/30 03:16:46;;;;;;;30.17;16.33;;;2.40;99.90;;;;;;5007411;28;20562;-62
2023/01/30 03:19:12;;;;;;;34.00;15.48;;;2.40;99.90;;;;;;5007389;28;20457;-62
2023/01/30 03:21:44;;;;;;;29.40;16.90;;;2.40;99.90;;;;;;5007561;28;20522;-62
2023/01/30 03:24:11;;;;;;;29.02;16.05;;;2.40;99.90;;;;;;5007241;28;20448;-62
2023/01/30 03:26:43;;;;;;;31.52;16.40;;;2.40;99.90;;;;;;5012241;28;20030;-62
2023/01/30 03:29:09;;;;;;;29.88;15.68;;;2.40;99.90;;;;;;5007366;28;20022;-62
2023/01/30 03:31:34;;;;;;;34.20;16.63;;;2.40;99.90;;;;;;5020588;28;20076;-61
2023/01/30 03:34:00;;;;;;;31.13;14.57;;;2.40;99.90;;;;;;5027261;28;20056;-62
2023/01/30 03:36:26;;;;;;;31.47;15.50;;;2.40;99.90;;;;;;5026485;28;20492;-61
2023/01/30 03:38:51;;;;;;;27.73;15.20;;;2.40;99.90;;;;;;5027153;28;20772;-61
2023/01/30 03:41:17;;;;;;;25.60;13.43;;;2.40;99.90;;;;;;5016640;28;20255;-62
2023/01/30 03:43:43;;;;;;;26.03;13.20;;;2.40;99.90;;;;;;5007278;28;20037;-63
2023/01/30 03:46:08;;;;;;;26.47;13.63;;;2.40;99.90;;;;;;5015866;28;20036;-62
2023/01/30 03:48:34;;;;;;;24.37;13.70;;;2.40;99.90;;;;;;5026667;28;20582;-63
2023/01/30 03:50:59;;;;;;;25.67;12.70;;;2.30;99.90;;;;;;5026262;28;20053;-62
2023/01/30 03:53:25;;;;;;;29.20;13.83;;;2.30;99.90;;;;;;5026623;28;20036;-62
2023/01/30 03:55:50;;;;;;;26.00;12.50;;;2.40;99.90;;;;;;5026578;28;20095;-62
2023/01/30 03:58:16;;;;;;;25.47;12.70;;;2.40;99.90;;;;;;5027442;28;20029;-62
2023/01/30 04:00:42;;;;;;;27.13;12.93;;;2.40;99.80;;;;;;5020158;28;20041;-62
2023/01/30 04:03:08;;;;;;;25.63;13.00;;;2.40;99.90;;;;;;5007053;28;20040;-62
2023/01/30 04:05:33;;;;;;;25.20;13.63;;;2.30;99.90;;;;;;5007515;28;20034;-63
2023/01/30 04:07:59;;;;;;;28.13;14.07;;;2.30;99.90;;;;;;5007172;28;20654;-62
2023/01/30 04:10:25;;;;;;;23.27;13.00;;;2.40;99.90;;;;;;5009769;28;20394;-64
2023/01/30 04:12:51;;;;;;;24.85;13.57;;;2.40;99.90;;;;;;5026675;28;20397;-62
2023/01/30 04:15:17;;;;;;;23.33;13.40;;;2.30;99.90;;;;;;5026279;28;20037;-61
2023/01/30 04:17:43;;;;;;;29.23;13.57;;;2.30;99.90;;;;;;5026924;28;20030;-61
2023/01/30 04:20:09;;;;;;;29.27;14.85;;;2.40;99.90;;;;;;5027042;28;20308;-62
2023/01/30 04:22:35;;;;;;;25.15;12.88;;;2.40;99.90;;;;;;5027265;28;20030;-62
2023/01/30 04:25:01;;;;;;;23.03;12.53;;;2.30;99.90;;;;;;5029543;28;20091;-62
2023/01/30 04:27:27;;;;;;;23.30;12.88;;;2.30;99.80;;;;;;5010108;28;20273;-62
2023/01/30 04:29:52;;;;;;;23.73;12.67;;;2.30;99.90;;;;;;5010538;28;20042;-62
2023/01/30 04:32:18;;;;;;;24.33;11.77;;;2.30;99.90;;;;;;5029397;28;20026;-63
2023/01/30 04:34:44;;;;;;;25.47;13.60;;;2.20;99.90;;;;;;5030042;28;20088;-62
2023/01/30 04:37:10;;;;;;;25.13;14.00;;;2.20;99.90;;;;;;5029703;28;20037;-62
2023/01/30 04:39:36;;;;;;;;;;;2.20;99.90;;;;;;5030213;28;20104;-62
2023/01/30 04:42:01;;;;;;;30.00;13.48;;;2.30;99.90;;;;;;5014762;28;20173;-61
2023/01/30 04:44:27;;;;;;;22.80;12.47;;;2.20;99.90;;;;;;5009926;28;20186;-61
2023/01/30 04:46:53;;;;;;;23.67;12.27;;;2.20;99.90;;;;;;5023046;28;20412;-62
2023/01/30 04:49:18;;;;;;;22.10;12.27;;;2.20;99.90;;;;;;5029695;28;20300;-62
2023/01/30 04:51:44;;;;;;;24.20;13.70;;;2.10;99.90;;;;;;5017520;28;20033;-63
2023/01/30 04:54:09;;;;;;;23.00;12.37;;;2.10;99.90;;;;;;5009769;28;20038;-62
2023/01/30 04:56:35;;;;;;;23.48;12.45;;;2.20;99.90;;;;;;5029011;28;20048;-62
2023/01/30 04:59:00;;;;;;;24.87;12.57;;;2.10;99.90;;;;;;5029643;28;20029;-63
2023/01/30 05:01:34;;;;;;;24.97;13.67;;;2.10;99.90;;;;;;5016434;28;20522;-62
2023/01/30 05:04:00;;;;;;;21.98;11.95;;;2.20;99.90;;;;;;5009549;28;20026;-62
2023/01/30 05:06:26;;;;;;;;;;;2.20;99.90;;;;;;5010120;28;20032;-62
2023/01/30 05:08:54;;;;;;;18.58;10.35;;;2.10;99.90;;;;;;5009405;28;19932;-62
2023/01/30 05:11:21;;;;;;;22.40;11.98;;;2.20;99.90;;;;;;5020490;28;20029;-62
2023/01/30 05:13:47;;;;;;;21.92;11.10;;;2.20;99.90;;;;;;5029111;28;20084;-63
2023/01/30 05:16:14;;;;;;;24.25;11.50;;;2.20;99.90;;;;;;5020136;28;20038;-62
2023/01/30 05:18:39;;;;;;;22.08;11.95;;;2.20;99.90;;;;;;5009356;28;20069;-64
2023/01/30 05:21:07;;;;;;;21.13;11.00;;;2.10;99.90;;;;;;5009771;28;20073;-62
2023/01/30 05:23:33;;;;;;;25.52;12.93;;;2.10;99.90;;;;;;5016715;28;20038;-62
2023/01/30 05:25:59;;;;;;;20.38;11.85;;;2.20;99.90;;;;;;5028528;28;20039;-62
2023/01/30 05:28:25;;;;;;;25.33;13.25;;;2.10;99.90;;;;;;5028005;28;20056;-62
2023/01/30 05:30:50;;;;;;;24.38;12.55;;;2.10;99.90;;;;;;5027312;28;20113;-62
2023/01/30 05:33:16;;;;;;;33.40;15.90;;;2.10;99.90;;;;;;5029324;28;20456;-62
2023/01/30 05:35:49;;;;;;;22.33;12.10;;;2.10;99.90;;;;;;5026939;28;20041;-62
2023/01/30 05:38:15;;;;;;;23.13;11.60;;;2.10;99.90;;;;;;5028843;28;20083;-63
2023/01/30 05:40:41;;;;;;;22.15;11.95;;;2.10;99.90;;;;;;5027729;28;20040;-62
2023/01/30 05:43:08;;;;;;;22.35;11.80;;;2.10;99.90;;;;;;5028975;28;20030;-62
2023/01/30 05:45:34;;;;;;;23.42;11.52;;;2.00;99.90;;;;;;5028388;28;20072;-62
2023/01/30 05:48:00;;;;;;;24.88;12.48;;;2.00;99.90;;;;;;5028776;28;20084;-62
2023/01/30 05:50:25;;;;;;;25.27;13.00;;;2.00;99.90;;;;;;5022367;28;20045;-63
2023/01/30 05:52:51;;;;;;;24.00;12.60;;;2.00;99.90;;;;;;5016077;28;20034;-62
2023/01/30 05:55:16;;;;;;;24.75;11.88;;;2.00;99.90;;;;;;5014008;28;20489;-61
2023/01/30 05:57:42;;;;;;;22.02;11.55;;;2.10;99.90;;;;;;5021014;28;20069;-63
2023/01/30 06:00:09;;;;;;;24.47;11.80;;;2.10;99.90;;;;;;5015181;28;20045;-62
2023/01/30 06:02:35;;;;;;;23.67;11.63;;;2.00;99.90;;;;;;5018429;28;20068;-63
2023/01/30 06:05:00;;;;;;;20.60;11.47;;;2.10;99.90;;;;;;5021017;28;20041;-63
2023/01/30 06:07:26;;;;;;;22.63;12.00;;;2.00;99.90;;;;;;5020321;28;20280;-63
2023/01/30 06:09:52;;;;;;;20.90;11.37;;;2.00;99.90;;;;;;5026885;28;20343;-62
2023/01/30 06:12:17;;;;;;;21.33;10.50;;;2.00;99.90;;;;;;5020117;28;20076;-62
2023/01/30 06:14:43;;;;;;;24.77;12.10;;;2.00;99.90;;;;;;5012908;28;20885;-62
2023/01/30 06:17:08;;;;;;;24.07;11.17;;;2.00;99.90;;;;;;5017708;28;20037;-63
2023/01/30 06:19:34;;;;;;;21.30;11.10;;;2.00;99.90;;;;;;5015681;28;20037;-63
2023/01/30 06:21:59;;;;;;;19.93;10.40;;;2.00;99.90;;;;;;5019507;28;20393;-62
2023/01/30 06:24:25;;;;;;;26.60;13.75;;;2.00;99.90;;;;;;5015124;28;20043;-65
2023/01/30 06:26:51;;;;;;;22.15;12.18;;;2.00;99.90;;;;;;5023268;28;20121;-62
2023/01/30 06:29:16;;;;;;;21.63;10.95;;;1.90;99.90;;;;;;5019359;28;20045;-62
2023/01/30 06:31:42;;;;;;;20.30;10.30;;;1.90;99.90;;;;;;5019258;28;20072;-64
2023/01/30 06:34:09;;;;;;;20.50;11.30;;;1.90;99.90;;;;;;5021740;28;20832;-62
2023/01/30 06:36:35;;;;;;;20.10;10.55;;;1.90;99.90;;;;;;5003678;28;20040;-63
2023/01/30 06:39:00;;;;;;;22.63;11.23;;;1.90;99.90;;;;;;5016085;28;20033;-63
2023/01/30 06:41:26;;;;;;;20.47;11.93;;;1.80;99.90;;;;;;5024720;28;20558;-63
2023/01/30 06:43:52;;;;;;;18.77;10.43;;;1.70;99.90;;;;;;5025728;28;20108;-63
2023/01/30 06:46:17;;;;;;;21.37;11.53;;;1.70;99.90;;;;;;5026139;28;20033;-62
2023/01/30 06:48:43;;;;;;;27.37;9.53;;;1.60;99.90;;;;;;5025914;28;20299;-62
2023/01/30 06:51:08;;;;;;;16.60;10.43;;;1.70;99.90;;;;;;5024304;28;20121;-63
2023/01/30 06:53:34;;;;;;;18.92;10.50;;;1.60;99.90;;;;;;5026643;28;20036;-61
2023/01/30 06:56:01;;;;;;;20.47;10.77;;;1.60;99.90;;;;;;5025333;28;20049;-62
2023/01/30 06:58:26;;;;;;;;;;;1.60;99.90;;;;;;5009057;28;20144;-63
2023/01/30 07:00:52;;;;;;;19.42;9.73;;;1.60;99.90;;;;;;5025323;28;20055;-63
2023/01/30 07:03:18;;;;;;;20.80;10.27;;;1.60;99.90;;;;;;5026564;28;20431;-64
2023/01/30 07:05:45;;;;;;;19.07;10.70;;;1.60;99.90;;;;;;5024528;28;20913;-62
2023/01/30 07:08:11;;;;;;;23.25;10.30;;;1.60;99.90;;;;;;5025332;28;20311;-63
2023/01/30 07:10:37;;;;;;;;;;;1.60;99.90;;;;;;5019743;28;20052;-63
2023/01/30 07:13:03;;;;;;;19.98;10.27;;;1.60;99.90;;;;;;5024314;28;20605;-63
2023/01/30 07:15:30;;;;;;;21.10;10.45;;;1.50;99.90;;;;;;5022841;28;20460;-63
2023/01/30 07:17:55;;;;;;;;;;;1.50;99.90;;;;;;5024679;28;20037;-62
2023/01/30 07:20:21;;;;;;;17.00;8.98;;;1.50;99.90;;;;;;5023385;28;19966;-65
2023/01/30 07:22:51;;;;;;;20.35;10.07;;;1.50;99.90;;;;;;5025637;28;20029;-62
2023/01/30 07:25:17;;;;;;;16.75;9.75;;;1.50;99.90;;;;;;5024119;28;20041;-62
2023/01/30 07:27:52;;;;;;;19.88;10.70;;;1.60;99.90;;;;;;5023027;28;20021;-65
2023/01/30 07:30:18;;;;;;;29.80;13.45;;;1.60;99.90;;;;;;5024567;28;20072;-64
2023/01/30 07:32:48;;;;;;;25.65;13.77;;;1.60;99.90;;;;;;5023561;28;20033;-65
2023/01/30 07:35:13;;;;;;;17.00;9.65;;;1.50;99.90;;;;;;5025304;28;20034;-64
2023/01/30 07:37:39;;;;;;;22.05;9.73;;;1.50;99.90;;;;;;5025224;28;20037;-66
2023/01/30 07:40:05;;;;;;;19.33;10.50;;;1.50;99.90;;;;;;5023349;28;20047;-63
2023/01/30 07:42:31;;;;;;;20.52;10.95;;;1.60;99.90;;;;;;5017626;28;20022;-63
2023/01/30 07:44:56;;;;;;;17.63;9.97;;;1.60;99.90;;;;;;5016327;28;20088;-63
2023/01/30 07:47:22;;;;;;;18.93;10.00;;;1.50;99.90;;;;;;5023312;28;20037;-63
2023/01/30 07:49:48;;;;;;;23.33;10.90;;;1.60;99.90;;;;;;5016844;28;20046;-64
2023/01/30 07:52:13;;;;;;;17.87;9.53;;;1.60;99.90;;;;;;5007000;28;20104;-64
2023/01/30 07:54:39;;;;;;;19.37;10.67;;;1.70;99.90;;;;;;5016909;28;20030;-62
2023/01/30 07:57:04;;;;;;;17.53;9.97;;;1.70;99.90;;;;;;5021699;28;20032;-62
2023/01/30 07:59:30;;;;;;;14.90;7.87;;;1.70;99.90;;;;;;5013593;28;20449;-61
2023/01/30 08:01:57;;;;;;;19.20;9.80;;;1.70;99.90;;;;;;5020461;28;20026;-61
2023/01/30 08:04:23;;;;;;;19.00;9.27;;;1.80;99.90;;;;;;5022658;28;20422;-62
2023/01/30 08:06:48;;;;;;;21.17;10.80;;;1.80;99.90;;;;;;5023959;28;20129;-61
2023/01/30 08:09:14;;;;;;;21.52;9.73;;;1.80;99.90;;;;;;5019239;28;20780;-63
2023/01/30 08:11:39;;;;;;;24.43;9.63;;;1.90;99.90;;;;;;5023100;28;20566;-62
2023/01/30 08:14:05;;;;;;;27.07;9.93;;;1.80;99.90;;;;;;5022077;28;20065;-62
2023/01/30 08:16:32;;;;;;;15.43;9.63;;;1.80;99.90;;;;;;5019195;28;20076;-62
2023/01/30 08:18:58;;;;;;;22.73;10.02;;;1.80;99.90;;;;;;5015598;28;20107;-62
2023/01/30 08:21:24;;;;;;;19.50;10.07;;;1.70;99.90;;;;;;5017778;28;20785;-61
2023/01/30 08:23:49;;;;;;;20.03;9.53;;;1.80;99.90;;;;;;5021896;28;20284;-61
2023/01/30 08:26:15;;;;;;;16.95;9.65;;;1.90;99.90;;;;;;5016735;28;20029;-61
2023/01/30 08:28:41;;;;;;;18.35;10.00;;;1.90;99.90;;;;;;5020339;28;20060;-61
2023/01/30 08:31:11;;;;;;;16.30;9.60;;;1.90;99.90;;;;;;5006030;28;20083;-61
2023/01/30 08:33:37;;;;;;;14.77;8.35;;;2.00;99.90;;;;;;5018704;28;20021;-62
2023/01/30 08:36:03;;;;;;;23.97;9.40;;;2.10;99.80;;;;;;5023744;28;20125;-62
2023/01/30 08:38:29;;;;;;;16.80;8.57;;;2.10;99.80;;;;;;5021599;28;20661;-62
2023/01/30 08:40:56;;;;;;;19.63;9.53;;;2.20;99.30;;;;;;5023133;28;20081;-62
2023/01/30 08:43:22;;;;;;;20.52;10.07;;;2.20;99.70;;;;;;5019513;28;20437;-62
2023/01/30 08:45:48;;;;;;;16.48;10.07;;;2.20;99.30;;;;;;5024332;28;20037;-63
2023/01/30 08:48:14;;;;;;;19.85;10.18;;;2.20;99.00;;;;;;5022871;28;20041;-63
2023/01/30 08:50:39;;;;;;;17.20;10.17;;;2.20;99.30;;;;;;5018929;28;20413;-64
2023/01/30 08:53:07;;;;;;;17.43;9.63;;;2.20;99.40;;;;;;5020837;28;20283;-63
2023/01/30 08:55:33;;;;;;;19.88;10.77;;;2.30;99.00;;;;;;5023124;28;20338;-63
2023/01/30 08:57:59;;;;;;;19.73;10.00;;;2.40;98.90;;;;;;5019633;28;20172;-63
2023/01/30 09:00:26;;;;;;;17.42;9.57;;;2.40;99.00;;;;;;5020696;28;20533;-63
2023/01/30 09:02:54;;;;;;;20.52;10.68;;;2.40;98.40;;;;;;5022522;28;20033;-63
2023/01/30 09:05:19;;;;;;;20.67;10.15;;;2.50;98.60;;;;;;5022227;28;20050;-64
2023/01/30 09:07:45;;;;;;;15.95;9.60;;;2.60;98.50;;;;;;5022911;28;20551;-64
2023/01/30 09:10:10;;;;;;;16.73;10.60;;;2.60;98.40;;;;;;5022708;28;20041;-64
2023/01/30 09:12:36;;;;;;;17.97;10.13;;;2.70;98.10;;;;;;5023221;28;20496;-66
2023/01/30 09:15:02;;;;;;;16.93;9.63;;;2.70;97.90;;;;;;5023185;28;20037;-67
2023/01/30 09:17:28;;;;;;;18.17;10.00;;;2.80;97.90;;;;;;5020202;28;20022;-65
2023/01/30 09:19:53;;;;;;;20.37;10.70;;;2.90;97.50;;;;;;5023689;28;20037;-65
2023/01/30 09:22:19;;;;;;;19.40;10.20;;;3.00;97.30;;;;;;5022558;28;20291;-65
2023/01/30 09:24:44;;;;;;;19.27;10.63;;;3.10;97.30;;;;;;5022035;28;20117;-65
2023/01/30 09:27:10;;;;;;;20.47;9.57;;;3.30;96.80;;;;;;5023086;28;20025;-66
2023/01/30 09:29:35;;;;;;;17.10;10.27;;;3.30;96.20;;;;;;5018402;28;20882;-64
2023/01/30 09:32:01;;;;;;;17.53;10.17;;;3.20;96.10;;;;;;5017269;28;20065;-64
2023/01/30 09:34:27;;;;;;;17.67;9.53;;;3.20;96.70;;;;;;5021558;28;20034;-64
2023/01/30 09:37:01;;;;;;;20.75;10.63;;;3.30;96.30;;;;;;5025653;28;20079;-64
2023/01/30 09:39:28;;;;;;;17.35;9.98;;;3.30;95.30;;;;;;5022098;28;20060;-65
2023/01/30 09:42:31;;;;;;;23.33;10.70;;;3.60;96.00;;;;;;5017698;28;20033;-67
2023/01/30 09:45:25;;;;;;;18.08;9.70;;;3.70;95.60;;;;;;5018014;28;20087;-65
2023/01/30 09:48:02;;;;;;;17.88;10.07;;;3.80;94.40;;;;;;5022561;28;20036;-69
2023/01/30 09:51:07;;;;;;;14.20;8.88;;;3.80;94.80;;;;;;5018114;28;20096;-66
2023/01/30 09:54:07;;;;;;;20.70;10.27;;;3.70;94.30;;;;;;5018688;28;20060;-66
2023/01/30 09:56:33;;;;;;;24.13;9.65;;;4.10;93.60;;;;;;5021957;28;20049;-67
2023/01/30 09:59:02;;;;;;;22.57;8.97;;;4.00;92.80;;;;;;5022356;28;20033;-67
2023/01/30 10:01:40;;;;;;;15.60;8.88;;;4.20;92.90;;;;;;5014070;28;20036;-65
2023/01/30 10:04:23;;;;;;;17.33;8.98;;;4.20;92.20;;;;;;5014016;28;20018;-65
2023/01/30 10:07:09;;;;;;;17.63;9.18;;;4.20;92.40;;;;;;5019696;28;20068;-65
2023/01/30 10:09:43;;;;;;;19.58;8.98;;;4.10;93.20;;;;;;4982872;28;20049;-67
2023/01/30 10:12:36;;;;;;;17.25;9.82;;;4.10;93.00;;;;;;5017635;28;20064;-65
2023/01/30 10:15:28;;;;;;;14.80;9.02;;;4.00;92.60;;;;;;5024211;28;20119;-66
2023/01/30 10:18:28;;;;;;;18.60;9.73;;;4.00;92.70;;;;;;5017825;28;20030;-65
2023/01/30 10:20:56;;;;;;;17.50;9.25;;;4.20;92.20;;;;;;4992602;28;20026;-67
2023/01/30 10:23:58;;;;;;;16.05;9.35;;;4.30;92.60;;;;;;5020518;28;20555;-66
2023/01/30 10:26:27;;;;;;;20.38;9.15;;;4.30;92.90;;;;;;5018543;28;20344;-67
2023/01/30 10:28:55;;;;;;;21.35;10.43;;;4.40;93.00;;;;;;5022025;28;20049;-66
2023/01/30 10:31:25;;;;;;;15.43;9.10;;;4.40;92.30;;;;;;5022334;28;20445;-67
2023/01/30 10:34:01;;;;;;;13.85;8.90;;;4.00;92.10;;;;;;5020377;28;20029;-66
2023/01/30 10:36:41;;;;;;;17.80;9.82;;;4.00;92.20;;;;;;5023385;28;20028;-65
2023/01/30 10:39:33;;;;;;;16.02;8.63;;;4.10;92.20;;;;;;5022913;28;20025;-66
2023/01/30 10:42:13;;;;;;;22.02;9.30;;;4.10;92.50;;;;;;5020225;28;20058;-65
2023/01/30 10:44:41;;;;;;;14.52;9.18;;;4.10;92.00;;;;;;5022161;28;20059;-65
2023/01/30 10:47:10;;;;;;;15.45;8.70;;;4.30;92.70;;;;;;5021032;28;20041;-65
2023/01/30 10:49:57;;;;;;;16.10;9.50;;;4.30;92.30;;;;;;5021712;28;20044;-65
2023/01/30 10:52:47;;;;;;;14.30;9.05;;;4.20;92.40;;;;;;5020419;28;20077;-65
2023/01/30 10:55:13;;;;;;;16.20;9.77;;;4.30;92.70;;;;;;5019465;28;20497;-65
2023/01/30 10:57:47;;;;;;;17.97;9.50;;;4.30;91.80;;;;;;5021873;28;20026;-66
2023/01/30 11:00:21;;;;;;;14.35;8.98;;;4.20;91.80;;;;;;5022094;28;20029;-66
2023/01/30 11:03:31;;;;;;;19.88;9.95;;;4.20;92.20;;;;;;5019330;28;20037;-66
2023/01/30 11:06:06;;;;;;;18.35;10.68;;;4.20;92.40;;;;;;5006285;28;20430;-66
2023/01/30 11:08:33;;;;;;;16.75;10.32;;;4.30;92.30;;;;;;5016841;28;20033;-66
2023/01/30 11:11:00;;;;;;;16.33;9.25;;;4.20;92.60;;;;;;5019831;28;20034;-66
2023/01/30 11:13:31;;;;;;;17.80;10.27;;;4.20;92.30;;;;;;5021363;28;20032;-66
2023/01/30 11:16:02;;;;;;;16.05;9.82;;;4.10;93.30;;;;;;5020492;28;20075;-67
2023/01/30 11:18:29;;;;;;;14.35;9.50;;;4.00;92.00;;;;;;5020098;28;20025;-68
2023/01/30 11:21:07;;;;;;;15.25;9.52;;;4.00;92.70;;;;;;5014100;28;20038;-66
2023/01/30 11:23:40;;;;;;;17.52;9.93;;;3.80;93.20;;;;;;5018944;28;20524;-65
2023/01/30 11:26:06;;;;;;;16.30;10.18;;;3.90;93.60;;;;;;5014764;28;20041;-66
2023/01/30 11:28:40;;;;;;;18.60;10.73;;;4.20;93.00;;;;;;5017284;28;20033;-69
2023/01/30 11:31:19;;;;;;;16.10;9.48;;;4.30;93.10;;;;;;5020539;28;20052;-68
2023/01/30 11:33:57;;;;;;;17.67;10.40;;;4.30;93.50;;;;;;5016528;28;20022;-69
2023/01/30 11:36:25;;;;;;;21.10;10.90;;;4.40;93.20;;;;;;5025399;28;20025;-67
2023/01/30 11:39:18;;;;;;;21.55;10.35;;;4.60;92.90;;;;;;5024229;28;20052;-67
2023/01/30 11:42:00;;;;;;;17.60;10.43;;;4.70;92.70;;;;;;5023543;28;20516;-66
2023/01/30 11:44:36;;;;;;;18.50;10.52;;;4.40;92.30;;;;;;5020503;28;20103;-66
2023/01/30 11:47:15;;;;;;;18.98;10.80;;;4.50;92.30;;;;;;5026271;28;20030;-67
2023/01/30 11:49:45;;;;;;;21.83;11.82;;;4.50;92.30;;;;;;5019247;28;20113;-66
2023/01/30 11:52:12;;;;;;;19.40;10.77;;;4.50;93.00;;;;;;5025357;28;20830;-66
2023/01/30 11:54:44;;;;;;;19.23;10.98;;;4.50;92.10;;;;;;5021549;28;20057;-66
2023/01/30 11:57:14;;;;;;;20.65;11.93;;;4.40;92.70;;;;;;5023134;28;20040;-66
2023/01/30 11:59:46;;;;;;;22.70;12.02;;;4.10;93.40;;;;;;5024167;28;20079;-66
2023/01/30 12:02:25;;;;;;;21.20;12.02;;;4.10;93.60;;;;;;5026640;28;20040;-66
2023/01/30 12:04:54;;;;;;;19.25;10.95;;;4.20;93.40;;;;;;5025419;28;20038;-66
2023/01/30 12:07:26;;;;;;;31.42;13.07;;;4.10;93.70;;;;;;5021702;28;20026;-66
2023/01/30 12:09:53;;;;;;;25.75;12.27;;;4.30;93.60;;;;;;5022362;28;20040;-67
2023/01/30 12:12:31;;;;;;;21.25;12.18;;;4.30;93.60;;;;;;5024989;28;20028;-66
2023/01/30 12:15:24;;;;;;;24.10;12.07;;;4.20;94.00;;;;;;5023293;28;20053;-66
2023/01/30 12:18:02;;;;;;;25.27;12.25;;;4.20;94.30;;;;;;5014610;28;20068;-66
2023/01/30 12:20:58;;;;;;;24.13;12.43;;;4.30;94.30;;;;;;5025716;28;21248;-67
2023/01/30 12:23:56;;;;;;;23.50;12.05;;;4.40;93.80;;;;;;5024388;28;20025;-66
2023/01/30 12:26:36;;;;;;;23.48;12.32;;;4.40;93.70;;;;;;5022086;28;20033;-67
2023/01/30 12:29:47;;;;;;;25.80;12.02;;;4.50;93.50;;;;;;5023362;28;20087;-67
2023/01/30 12:32:16;;;;;;;22.00;11.88;;;4.50;93.00;;;;;;4985994;28;20121;-66
2023/01/30 12:34:44;;;;;;;24.42;13.30;;;4.50;93.70;;;;;;5020699;28;20021;-66
2023/01/30 12:37:25;;;;;;;24.13;12.95;;;4.50;93.50;;;;;;5020377;28;20038;-68
2023/01/30 12:39:59;;;;;;;23.58;12.10;;;4.70;94.20;;;;;;5016327;28;20060;-68
2023/01/30 12:42:33;;;;;;;20.75;12.25;;;4.60;93.60;;;;;;5026676;28;20055;-67
2023/01/30 12:45:10;;;;;;;23.98;12.13;;;4.70;94.00;;;;;;5020297;28;20108;-67
2023/01/30 12:48:08;;;;;;;24.85;12.07;;;4.80;94.60;;;;;;5018591;28;20561;-66
2023/01/30 12:50:33;;;;;;;24.80;13.18;;;4.90;93.90;;;;;;4941540;28;20091;-68
2023/01/30 12:53:23;;;;;;;30.93;13.03;;;4.90;94.20;;;;;;5020044;28;20061;-66
2023/01/30 12:55:58;;;;;;;23.60;13.05;;;5.00;94.60;;;;;;5020935;28;20046;-66
2023/01/30 12:58:29;;;;;;;28.00;13.88;;;5.00;94.40;;;;;;5020718;28;20618;-67
2023/01/30 13:01:28;;;;;;;21.23;11.57;;;5.10;94.50;;;;;;5008503;28;20405;-66
2023/01/30 13:04:10;;;;;;;27.85;13.10;;;5.00;93.90;;;;;;5019608;28;20067;-66
2023/01/30 13:07:10;;;;;;;26.90;12.68;;;5.00;95.00;;;;;;5023077;28;20387;-67